sensor_id;sensor_type;location;lat;lon;timestamp;temperature;humidity
39657;DHT22;25337;51.478;7.510;2024-03-08T00:01:28;0.10;99.90
39657;DHT22;25337;51.478;7.510;2024-03-08T00:03:54;0.10;99.90
39657;DHT22;25337;51.478;7.510;2024-03-08T00:06:19;0.10;99.90
39657;DHT22;25337;51.478;7.510;2024-03-08T00:08:45;0.20;99.90
39657;DHT22;25337;51.478;7.510;2024-03-08T00:11:11;0.20;99.90
39657;DHT22;25337;51.478;7.510;2024-03-08T00:13:36;0.40;99.90
39657;DHT22;25337;51.478;7.510;2024-03-08T00:16:02;0.40;99.90
39657;DHT22;25337;51.478;7.510;2024-03-08T00:18:27;0.50;99.90
39657;DHT22;25337;51.478;7.510;2024-03-08T00:20:54;0.60;99.90
39657;DHT22;25337;51.478;7.510;2024-03-08T00:23:19;0.60;99.90
39657;DHT22;25337;51.478;7.510;2024-03-08T00:25:45;0.60;99.90
39657;DHT22;25337;51.478;7.510;2024-03-08T00:28:11;0.60;99.90
39657;DHT22;25337;51.478;7.510;2024-03-08T00:30:40;0.60;99.90
39657;DHT22;25337;51.478;7.510;2024-03-08T00:33:06;0.50;99.90
39657;DHT22;25337;51.478;7.510;2024-03-08T00:35:31;0.40;99.90
39657;DHT22;25337;51.478;7.510;2024-03-08T00:37:57;0.40;99.90
39657;DHT22;25337;51.478;7.510;2024-03-08T00:40:22;0.40;99.90
39657;DHT22;25337;51.478;7.510;2024-03-08T00:42:48;0.50;99.90
39657;DHT22;25337;51.478;7.510;2024-03-08T00:45:13;0.60;99.90
39657;DHT22;25337;51.478;7.510;2024-03-08T00:47:39;0.80;99.90
39657;DHT22;25337;51.478;7.510;2024-03-08T00:50:05;0.90;99.90
39657;DHT22;25337;51.478;7.510;2024-03-08T00:52:31;1.00;99.90
39657;DHT22;25337;51.478;7.510;2024-03-08T00:54:57;1.10;99.90
39657;DHT22;25337;51.478;7.510;2024-03-08T00:57:22;1.10;99.90
39657;DHT22;25337;51.478;7.510;2024-03-08T00:59:48;1.10;99.90
39657;DHT22;25337;51.478;7.510;2024-03-08T01:02:14;1.00;99.90
39657;DHT22;25337;51.478;7.510;2024-03-08T01:04:39;1.10;99.90
39657;DHT22;25337;51.478;7.510;2024-03-08T01:07:05;1.10;99.90
39657;DHT22;25337;51.478;7.510;2024-03-08T01:09:31;1.10;99.90
39657;DHT22;25337;51.478;7.510;2024-03-08T01:11:57;1.00;99.90
39657;DHT22;25337;51.478;7.510;2024-03-08T01:14:23;1.00;99.90
39657;DHT22;25337;51.478;7.510;2024-03-08T01:16:50;1.00;99.90
39657;DHT22;25337;51.478;7.510;2024-03-08T01:19:15;0.90;99.90
39657;DHT22;25337;51.478;7.510;2024-03-08T01:21:41;0.90;99.90
39657;DHT22;25337;51.478;7.510;2024-03-08T01:24:07;0.80;99.90
39657;DHT22;25337;51.478;7.510;2024-03-08T01:26:33;0.70;99.90
39657;DHT22;25337;51.478;7.510;2024-03-08T01:29:02;0.80;99.90
39657;DHT22;25337;51.478;7.510;2024-03-08T01:31:29;0.80;99.90
39657;DHT22;25337;51.478;7.510;2024-03-08T01:33:58;0.80;99.90
39657;DHT22;25337;51.478;7.510;2024-03-08T01:36:24;1.80;99.90
39657;DHT22;25337;51.478;7.510;2024-03-08T01:38:51;0.80;99.90
39657;DHT22;25337;51.478;7.510;2024-03-08T01:41:17;0.80;99.90
39657;DHT22;25337;51.478;7.510;2024-03-08T01:43:43;0.70;99.90
39657;DHT22;25337;51.478;7.510;2024-03-08T01:46:10;0.70;99.90
39657;DHT22;25337;51.478;7.510;2024-03-08T01:48:38;0.70;99.90
39657;DHT22;25337;51.478;7.510;2024-03-08T01:51:04;0.70;99.90
39657;DHT22;25337;51.478;7.510;2024-03-08T01:53:31;0.70;99.90
39657;DHT22;25337;51.478;7.510;2024-03-08T01:55:58;0.70;99.90
39657;DHT22;25337;51.478;7.510;2024-03-08T01:58:26;0.60;99.90
39657;DHT22;25337;51.478;7.510;2024-03-08T02:00:53;0.50;99.90
39657;DHT22;25337;51.478;7.510;2024-03-08T02:03:19;0.40;99.90
39657;DHT22;25337;51.478;7.510;2024-03-08T02:05:46;0.40;99.90
39657;DHT22;25337;51.478;7.510;2024-03-08T02:08:12;0.50;99.90
39657;DHT22;25337;51.478;7.510;2024-03-08T02:10:40;0.40;99.90
39657;DHT22;25337;51.478;7.510;2024-03-08T02:13:07;0.30;99.90
39657;DHT22;25337;51.478;7.510;2024-03-08T02:15:55;0.20;99.90
39657;DHT22;25337;51.478;7.510;2024-03-08T02:18:22;0.20;99.90
39657;DHT22;25337;51.478;7.510;2024-03-08T02:20:59;0.20;99.90
39657;DHT22;25337;51.478;7.510;2024-03-08T02:23:25;0.20;99.90
39657;DHT22;25337;51.478;7.510;2024-03-08T02:25:52;0.30;99.90
39657;DHT22;25337;51.478;7.510;2024-03-08T02:28:19;0.30;99.90
39657;DHT22;25337;51.478;7.510;2024-03-08T02:30:52;0.30;99.90
39657;DHT22;25337;51.478;7.510;2024-03-08T02:33:21;0.30;99.90
39657;DHT22;25337;51.478;7.510;2024-03-08T02:35:48;0.20;99.90
39657;DHT22;25337;51.478;7.510;2024-03-08T02:38:15;0.30;99.90
39657;DHT22;25337;51.478;7.510;2024-03-08T02:40:45;0.20;99.90
39657;DHT22;25337;51.478;7.510;2024-03-08T02:43:11;0.10;99.90
39657;DHT22;25337;51.478;7.510;2024-03-08T02:45:37;0.00;99.90
39657;DHT22;25337;51.478;7.510;2024-03-08T02:48:04;-0.10;99.90
39657;DHT22;25337;51.478;7.510;2024-03-08T02:50:32;-0.20;99.90
39657;DHT22;25337;51.478;7.510;2024-03-08T02:52:57;-0.20;99.90
39657;DHT22;25337;51.478;7.510;2024-03-08T02:55:23;-0.30;99.90
39657;DHT22;25337;51.478;7.510;2024-03-08T02:57:51;-0.30;99.90
39657;DHT22;25337;51.478;7.510;2024-03-08T03:00:17;-0.40;99.90
39657;DHT22;25337;51.478;7.510;2024-03-08T03:02:45;-0.40;99.90
39657;DHT22;25337;51.478;7.510;2024-03-08T03:05:10;-0.50;99.90
39657;DHT22;25337;51.478;7.510;2024-03-08T03:07:37;-0.60;99.90
39657;DHT22;25337;51.478;7.510;2024-03-08T03:10:03;-0.60;99.90
39657;DHT22;25337;51.478;7.510;2024-03-08T03:12:29;-0.60;99.90
39657;DHT22;25337;51.478;7.510;2024-03-08T03:14:56;-0.50;99.90
39657;DHT22;25337;51.478;7.510;2024-03-08T03:17:25;-0.50;99.90
39657;DHT22;25337;51.478;7.510;2024-03-08T03:19:52;-0.50;99.90
39657;DHT22;25337;51.478;7.510;2024-03-08T03:22:18;-0.50;99.90
39657;DHT22;25337;51.478;7.510;2024-03-08T03:24:44;-0.60;99.90
39657;DHT22;25337;51.478;7.510;2024-03-08T03:27:12;-0.70;99.90
39657;DHT22;25337;51.478;7.510;2024-03-08T03:29:44;-0.70;99.90
39657;DHT22;25337;51.478;7.510;2024-03-08T03:32:13;-0.70;99.90
39657;DHT22;25337;51.478;7.510;2024-03-08T03:34:39;-0.70;99.90
39657;DHT22;25337;51.478;7.510;2024-03-08T03:37:06;-0.70;99.90
39657;DHT22;25337;51.478;7.510;2024-03-08T03:39:37;-0.60;99.90
39657;DHT22;25337;51.478;7.510;2024-03-08T03:42:17;-0.70;99.90
39657;DHT22;25337;51.478;7.510;2024-03-08T03:44:47;-0.70;99.90
39657;DHT22;25337;51.478;7.510;2024-03-08T03:47:13;-0.80;99.90
39657;DHT22;25337;51.478;7.510;2024-03-08T03:49:40;-0.90;99.90
39657;DHT22;25337;51.478;7.510;2024-03-08T03:52:06;-1.00;99.90
39657;DHT22;25337;51.478;7.510;2024-03-08T03:54:31;-1.10;99.90
39657;DHT22;25337;51.478;7.510;2024-03-08T03:56:58;-1.20;99.90
39657;DHT22;25337;51.478;7.510;2024-03-08T03:59:24;-1.20;99.90
39657;DHT22;25337;51.478;7.510;2024-03-08T04:01:49;-1.20;99.90
39657;DHT22;25337;51.478;7.510;2024-03-08T04:04:15;-1.20;99.90
39657;DHT22;25337;51.478;7.510;2024-03-08T04:06:41;-1.20;99.90
39657;DHT22;25337;51.478;7.510;2024-03-08T04:09:07;-1.20;99.90
39657;DHT22;25337;51.478;7.510;2024-03-08T04:11:33;-1.30;99.90
39657;DHT22;25337;51.478;7.510;2024-03-08T04:13:58;-1.40;99.90
39657;DHT22;25337;51.478;7.510;2024-03-08T04:16:24;-1.60;99.90
39657;DHT22;25337;51.478;7.510;2024-03-08T04:18:51;-1.90;99.90
39657;DHT22;25337;51.478;7.510;2024-03-08T04:21:17;-2.00;99.90
39657;DHT22;25337;51.478;7.510;2024-03-08T04:23:44;-2.10;99.90
39657;DHT22;25337;51.478;7.510;2024-03-08T04:26:11;-2.10;99.90
39657;DHT22;25337;51.478;7.510;2024-03-08T04:28:36;-2.10;99.90
39657;DHT22;25337;51.478;7.510;2024-03-08T04:31:03;-2.00;99.90
39657;DHT22;25337;51.478;7.510;2024-03-08T04:33:28;-2.00;99.90
39657;DHT22;25337;51.478;7.510;2024-03-08T04:35:54;-2.00;99.90
39657;DHT22;25337;51.478;7.510;2024-03-08T04:38:20;-2.00;99.90
39657;DHT22;25337;51.478;7.510;2024-03-08T04:40:45;-1.90;99.90
39657;DHT22;25337;51.478;7.510;2024-03-08T04:43:11;-1.80;99.90
39657;DHT22;25337;51.478;7.510;2024-03-08T04:45:37;-1.80;99.90
39657;DHT22;25337;51.478;7.510;2024-03-08T04:48:03;-1.70;99.90
39657;DHT22;25337;51.478;7.510;2024-03-08T04:50:28;-1.70;99.90
39657;DHT22;25337;51.478;7.510;2024-03-08T04:52:55;-1.70;99.90
39657;DHT22;25337;51.478;7.510;2024-03-08T04:55:20;-1.70;99.90
39657;DHT22;25337;51.478;7.510;2024-03-08T04:57:47;-1.70;99.90
39657;DHT22;25337;51.478;7.510;2024-03-08T05:00:13;-1.70;99.90
39657;DHT22;25337;51.478;7.510;2024-03-08T05:02:40;-1.70;99.90
39657;DHT22;25337;51.478;7.510;2024-03-08T05:05:09;-1.70;99.90
39657;DHT22;25337;51.478;7.510;2024-03-08T05:07:40;-1.70;99.90
39657;DHT22;25337;51.478;7.510;2024-03-08T05:10:07;-1.70;99.90
39657;DHT22;25337;51.478;7.510;2024-03-08T05:12:33;-1.70;99.90
39657;DHT22;25337;51.478;7.510;2024-03-08T05:14:59;-1.60;99.90
39657;DHT22;25337;51.478;7.510;2024-03-08T05:17:25;-1.60;99.90
39657;DHT22;25337;51.478;7.510;2024-03-08T05:19:51;-1.60;99.90
39657;DHT22;25337;51.478;7.510;2024-03-08T05:22:17;-1.70;99.90
39657;DHT22;25337;51.478;7.510;2024-03-08T05:24:44;-1.70;99.90
39657;DHT22;25337;51.478;7.510;2024-03-08T05:27:10;-1.80;99.90
39657;DHT22;25337;51.478;7.510;2024-03-08T05:29:36;-1.80;99.90
39657;DHT22;25337;51.478;7.510;2024-03-08T05:32:01;-1.90;99.90
39657;DHT22;25337;51.478;7.510;2024-03-08T05:34:28;-2.00;99.90
39657;DHT22;25337;51.478;7.510;2024-03-08T05:36:54;-2.00;99.90
39657;DHT22;25337;51.478;7.510;2024-03-08T05:39:20;-2.00;99.90
39657;DHT22;25337;51.478;7.510;2024-03-08T05:41:46;-2.00;99.90
39657;DHT22;25337;51.478;7.510;2024-03-08T05:44:13;-1.90;99.90
39657;DHT22;25337;51.478;7.510;2024-03-08T05:46:39;-2.00;99.90
39657;DHT22;25337;51.478;7.510;2024-03-08T05:49:05;-2.00;99.90
39657;DHT22;25337;51.478;7.510;2024-03-08T05:51:32;-2.00;99.90
39657;DHT22;25337;51.478;7.510;2024-03-08T05:54:09;-2.00;99.90
39657;DHT22;25337;51.478;7.510;2024-03-08T05:56:36;-2.10;99.90
39657;DHT22;25337;51.478;7.510;2024-03-08T05:59:02;-2.20;99.90
39657;DHT22;25337;51.478;7.510;2024-03-08T06:01:28;-2.30;99.90
39657;DHT22;25337;51.478;7.510;2024-03-08T06:03:54;-2.40;99.90
39657;DHT22;25337;51.478;7.510;2024-03-08T06:06:24;-2.50;99.90
39657;DHT22;25337;51.478;7.510;2024-03-08T06:08:50;-2.50;99.90
39657;DHT22;25337;51.478;7.510;2024-03-08T06:11:17;-2.40;99.90
39657;DHT22;25337;51.478;7.510;2024-03-08T06:13:46;-2.30;99.90
39657;DHT22;25337;51.478;7.510;2024-03-08T06:16:12;-2.30;99.90
39657;DHT22;25337;51.478;7.510;2024-03-08T06:18:38;-2.30;99.90
39657;DHT22;25337;51.478;7.510;2024-03-08T06:21:05;-2.40;99.90
39657;DHT22;25337;51.478;7.510;2024-03-08T06:23:34;-2.50;99.90
39657;DHT22;25337;51.478;7.510;2024-03-08T06:26:10;-2.40;99.90
39657;DHT22;25337;51.478;7.510;2024-03-08T06:28:36;-2.40;99.90
39657;DHT22;25337;51.478;7.510;2024-03-08T06:31:02;-2.30;99.90
39657;DHT22;25337;51.478;7.510;2024-03-08T06:33:28;-2.20;99.90
39657;DHT22;25337;51.478;7.510;2024-03-08T06:35:54;-2.20;99.90
39657;DHT22;25337;51.478;7.510;2024-03-08T06:38:23;-2.20;99.90
39657;DHT22;25337;51.478;7.510;2024-03-08T06:40:49;-2.20;99.90
39657;DHT22;25337;51.478;7.510;2024-03-08T06:43:14;-2.20;99.90
39657;DHT22;25337;51.478;7.510;2024-03-08T06:45:47;-2.20;99.90
39657;DHT22;25337;51.478;7.510;2024-03-08T06:48:16;-2.10;99.90
39657;DHT22;25337;51.478;7.510;2024-03-08T06:50:43;-2.00;99.90
39657;DHT22;25337;51.478;7.510;2024-03-08T06:53:09;-1.90;99.90
39657;DHT22;25337;51.478;7.510;2024-03-08T06:55:35;-1.80;99.90
39657;DHT22;25337;51.478;7.510;2024-03-08T06:58:01;-1.70;99.90
39657;DHT22;25337;51.478;7.510;2024-03-08T07:00:27;-1.60;99.90
39657;DHT22;25337;51.478;7.510;2024-03-08T07:02:54;-1.50;99.90
39657;DHT22;25337;51.478;7.510;2024-03-08T07:05:20;-1.40;99.90
39657;DHT22;25337;51.478;7.510;2024-03-08T07:07:46;-1.30;99.90
39657;DHT22;25337;51.478;7.510;2024-03-08T07:10:14;-1.20;99.90
39657;DHT22;25337;51.478;7.510;2024-03-08T07:12:41;-1.20;99.90
39657;DHT22;25337;51.478;7.510;2024-03-08T07:15:07;-1.10;99.90
39657;DHT22;25337;51.478;7.510;2024-03-08T07:17:33;-1.00;99.90
39657;DHT22;25337;51.478;7.510;2024-03-08T07:20:00;-1.00;99.90
39657;DHT22;25337;51.478;7.510;2024-03-08T07:22:32;-0.90;99.90
39657;DHT22;25337;51.478;7.510;2024-03-08T07:24:58;-0.70;99.90
39657;DHT22;25337;51.478;7.510;2024-03-08T07:27:43;-0.60;99.90
39657;DHT22;25337;51.478;7.510;2024-03-08T07:30:09;-0.50;99.90
39657;DHT22;25337;51.478;7.510;2024-03-08T07:32:35;-0.40;99.90
39657;DHT22;25337;51.478;7.510;2024-03-08T07:35:01;-0.30;99.90
39657;DHT22;25337;51.478;7.510;2024-03-08T07:37:27;-0.20;99.90
39657;DHT22;25337;51.478;7.510;2024-03-08T07:39:53;0.00;99.90
39657;DHT22;25337;51.478;7.510;2024-03-08T07:42:18;0.10;99.90
39657;DHT22;25337;51.478;7.510;2024-03-08T07:44:44;0.30;99.90
39657;DHT22;25337;51.478;7.510;2024-03-08T07:47:11;0.40;99.90
39657;DHT22;25337;51.478;7.510;2024-03-08T07:49:37;0.60;99.90
39657;DHT22;25337;51.478;7.510;2024-03-08T07:52:04;0.70;99.90
39657;DHT22;25337;51.478;7.510;2024-03-08T07:54:30;0.90;99.90
39657;DHT22;25337;51.478;7.510;2024-03-08T07:56:56;1.00;99.90
39657;DHT22;25337;51.478;7.510;2024-03-08T07:59:21;1.10;99.90
39657;DHT22;25337;51.478;7.510;2024-03-08T08:01:47;1.20;99.90
39657;DHT22;25337;51.478;7.510;2024-03-08T08:04:13;1.30;99.90
39657;DHT22;25337;51.478;7.510;2024-03-08T08:06:41;1.50;99.90
39657;DHT22;25337;51.478;7.510;2024-03-08T08:09:07;1.70;99.90
39657;DHT22;25337;51.478;7.510;2024-03-08T08:11:41;1.90;99.90
39657;DHT22;25337;51.478;7.510;2024-03-08T08:14:09;2.10;99.90
39657;DHT22;25337;51.478;7.510;2024-03-08T08:19:02;2.40;99.90
39657;DHT22;25337;51.478;7.510;2024-03-08T08:21:34;2.60;99.90
39657;DHT22;25337;51.478;7.510;2024-03-08T08:23:59;2.70;99.90
39657;DHT22;25337;51.478;7.510;2024-03-08T08:26:25;2.80;99.90
39657;DHT22;25337;51.478;7.510;2024-03-08T08:28:51;2.90;99.90
39657;DHT22;25337;51.478;7.510;2024-03-08T08:31:18;3.00;99.90
39657;DHT22;25337;51.478;7.510;2024-03-08T08:33:44;3.10;99.90
39657;DHT22;25337;51.478;7.510;2024-03-08T08:36:10;3.20;99.90
39657;DHT22;25337;51.478;7.510;2024-03-08T08:38:36;3.30;99.90
39657;DHT22;25337;51.478;7.510;2024-03-08T08:41:01;3.40;99.90
39657;DHT22;25337;51.478;7.510;2024-03-08T08:43:28;3.60;99.90
39657;DHT22;25337;51.478;7.510;2024-03-08T08:45:53;4.00;99.90
39657;DHT22;25337;51.478;7.510;2024-03-08T08:48:20;4.40;99.90
39657;DHT22;25337;51.478;7.510;2024-03-08T08:50:46;5.00;99.90
39657;DHT22;25337;51.478;7.510;2024-03-08T08:53:12;5.50;99.90
39657;DHT22;25337;51.478;7.510;2024-03-08T08:55:40;5.90;99.90
39657;DHT22;25337;51.478;7.510;2024-03-08T08:58:06;6.20;99.90
39657;DHT22;25337;51.478;7.510;2024-03-08T09:00:33;6.40;99.90
39657;DHT22;25337;51.478;7.510;2024-03-08T09:03:00;6.80;99.90
39657;DHT22;25337;51.478;7.510;2024-03-08T09:05:27;7.20;99.90
39657;DHT22;25337;51.478;7.510;2024-03-08T09:07:53;7.30;99.90
39657;DHT22;25337;51.478;7.510;2024-03-08T09:10:18;7.70;99.90
39657;DHT22;25337;51.478;7.510;2024-03-08T09:12:45;8.00;99.90
39657;DHT22;25337;51.478;7.510;2024-03-08T09:15:10;8.30;99.90
39657;DHT22;25337;51.478;7.510;2024-03-08T09:17:39;8.50;99.90
39657;DHT22;25337;51.478;7.510;2024-03-08T09:20:07;8.50;99.10
39657;DHT22;25337;51.478;7.510;2024-03-08T09:22:33;7.90;99.90
39657;DHT22;25337;51.478;7.510;2024-03-08T09:24:58;7.70;99.90
39657;DHT22;25337;51.478;7.510;2024-03-08T09:27:24;7.90;99.90
39657;DHT22;25337;51.478;7.510;2024-03-08T09:29:49;8.00;99.90
39657;DHT22;25337;51.478;7.510;2024-03-08T09:32:16;8.20;99.90
39657;DHT22;25337;51.478;7.510;2024-03-08T09:34:42;8.20;99.90
39657;DHT22;25337;51.478;7.510;2024-03-08T09:37:07;8.20;99.90
39657;DHT22;25337;51.478;7.510;2024-03-08T09:39:34;8.30;99.90
39657;DHT22;25337;51.478;7.510;2024-03-08T09:42:03;8.40;99.90
39657;DHT22;25337;51.478;7.510;2024-03-08T09:44:29;8.20;99.90
39657;DHT22;25337;51.478;7.510;2024-03-08T09:46:55;8.30;99.90
39657;DHT22;25337;51.478;7.510;2024-03-08T09:49:21;8.60;99.90
39657;DHT22;25337;51.478;7.510;2024-03-08T09:51:47;8.90;99.90
39657;DHT22;25337;51.478;7.510;2024-03-08T09:54:13;8.80;98.80
39657;DHT22;25337;51.478;7.510;2024-03-08T09:56:39;8.30;99.10
39657;DHT22;25337;51.478;7.510;2024-03-08T09:59:09;7.90;99.90
39657;DHT22;25337;51.478;7.510;2024-03-08T10:01:53;7.90;99.90
39657;DHT22;25337;51.478;7.510;2024-03-08T10:04:22;8.50;99.90
39657;DHT22;25337;51.478;7.510;2024-03-08T10:06:47;8.70;99.70
39657;DHT22;25337;51.478;7.510;2024-03-08T10:09:14;8.80;98.50
39657;DHT22;25337;51.478;7.510;2024-03-08T10:11:43;8.80;99.90
39657;DHT22;25337;51.478;7.510;2024-03-08T10:14:09;9.20;99.30
39657;DHT22;25337;51.478;7.510;2024-03-08T10:16:36;9.80;98.90
39657;DHT22;25337;51.478;7.510;2024-03-08T10:19:03;9.70;99.10
39657;DHT22;25337;51.478;7.510;2024-03-08T10:21:28;10.50;97.50
39657;DHT22;25337;51.478;7.510;2024-03-08T10:23:56;11.30;92.40
39657;DHT22;25337;51.478;7.510;2024-03-08T10:26:21;11.00;91.00
39657;DHT22;25337;51.478;7.510;2024-03-08T10:28:51;10.60;93.90
39657;DHT22;25337;51.478;7.510;2024-03-08T10:31:18;10.50;94.20
39657;DHT22;25337;51.478;7.510;2024-03-08T10:33:48;10.20;96.20
39657;DHT22;25337;51.478;7.510;2024-03-08T10:36:15;10.60;96.60
39657;DHT22;25337;51.478;7.510;2024-03-08T10:38:42;11.50;94.90
39657;DHT22;25337;51.478;7.510;2024-03-08T10:41:12;12.20;90.50
39657;DHT22;25337;51.478;7.510;2024-03-08T10:49:31;11.60;87.20
39657;DHT22;25337;51.478;7.510;2024-03-08T10:52:03;11.00;90.90
39657;DHT22;25337;51.478;7.510;2024-03-08T10:54:31;10.70;92.70
39657;DHT22;25337;51.478;7.510;2024-03-08T10:56:57;10.80;92.80
39657;DHT22;25337;51.478;7.510;2024-03-08T10:59:25;10.80;91.60
39657;DHT22;25337;51.478;7.510;2024-03-08T11:01:52;10.80;93.70
39657;DHT22;25337;51.478;7.510;2024-03-08T11:04:18;11.00;93.10
39657;DHT22;25337;51.478;7.510;2024-03-08T11:06:50;11.50;91.30
39657;DHT22;25337;51.478;7.510;2024-03-08T11:12:23;12.10;89.50
39657;DHT22;25337;51.478;7.510;2024-03-08T11:14:55;11.90;88.90
39657;DHT22;25337;51.478;7.510;2024-03-08T11:17:47;12.20;90.40
39657;DHT22;25337;51.478;7.510;2024-03-08T11:20:20;12.20;85.10
39657;DHT22;25337;51.478;7.510;2024-03-08T11:22:50;11.90;87.70
39657;DHT22;25337;51.478;7.510;2024-03-08T11:28:14;12.10;88.60
39657;DHT22;25337;51.478;7.510;2024-03-08T11:30:43;12.50;85.60
39657;DHT22;25337;51.478;7.510;2024-03-08T11:33:14;12.80;88.10
39657;DHT22;25337;51.478;7.510;2024-03-08T11:35:40;13.80;84.20
39657;DHT22;25337;51.478;7.510;2024-03-08T11:38:08;14.80;69.90
39657;DHT22;25337;51.478;7.510;2024-03-08T11:40:35;15.60;65.70
39657;DHT22;25337;51.478;7.510;2024-03-08T11:43:01;16.10;63.90
39657;DHT22;25337;51.478;7.510;2024-03-08T11:45:35;16.70;59.60
39657;DHT22;25337;51.478;7.510;2024-03-08T11:48:02;17.10;59.70
39657;DHT22;25337;51.478;7.510;2024-03-08T11:50:29;17.20;57.90
39657;DHT22;25337;51.478;7.510;2024-03-08T11:53:01;17.10;58.10
39657;DHT22;25337;51.478;7.510;2024-03-08T11:55:28;16.90;56.10
39657;DHT22;25337;51.478;7.510;2024-03-08T11:58:04;16.70;57.90
39657;DHT22;25337;51.478;7.510;2024-03-08T12:00:30;16.80;54.50
39657;DHT22;25337;51.478;7.510;2024-03-08T12:03:07;17.10;55.30
39657;DHT22;25337;51.478;7.510;2024-03-08T12:05:33;17.40;55.50
39657;DHT22;25337;51.478;7.510;2024-03-08T12:07:59;17.50;53.30
39657;DHT22;25337;51.478;7.510;2024-03-08T12:10:25;17.10;54.30
39657;DHT22;25337;51.478;7.510;2024-03-08T12:12:52;17.00;55.70
39657;DHT22;25337;51.478;7.510;2024-03-08T12:15:23;17.40;55.70
39657;DHT22;25337;51.478;7.510;2024-03-08T12:17:50;17.50;54.80
39657;DHT22;25337;51.478;7.510;2024-03-08T12:20:21;17.70;54.50
39657;DHT22;25337;51.478;7.510;2024-03-08T12:22:48;17.90;53.20
39657;DHT22;25337;51.478;7.510;2024-03-08T12:25:14;18.10;53.60
39657;DHT22;25337;51.478;7.510;2024-03-08T12:27:41;17.80;52.90
39657;DHT22;25337;51.478;7.510;2024-03-08T12:30:21;17.40;55.00
39657;DHT22;25337;51.478;7.510;2024-03-08T12:32:56;17.90;55.90
39657;DHT22;25337;51.478;7.510;2024-03-08T12:35:29;18.40;54.60
39657;DHT22;25337;51.478;7.510;2024-03-08T12:37:58;18.80;52.20
39657;DHT22;25337;51.478;7.510;2024-03-08T12:40:29;18.80;51.30
39657;DHT22;25337;51.478;7.510;2024-03-08T12:42:55;18.90;51.00
39657;DHT22;25337;51.478;7.510;2024-03-08T12:45:22;18.50;51.80
39657;DHT22;25337;51.478;7.510;2024-03-08T12:47:52;18.30;53.30
39657;DHT22;25337;51.478;7.510;2024-03-08T12:50:19;18.70;52.10
39657;DHT22;25337;51.478;7.510;2024-03-08T12:52:45;18.90;52.10
39657;DHT22;25337;51.478;7.510;2024-03-08T12:55:10;19.30;51.80
39657;DHT22;25337;51.478;7.510;2024-03-08T12:57:38;19.60;51.30
39657;DHT22;25337;51.478;7.510;2024-03-08T13:00:04;19.80;50.10
39657;DHT22;25337;51.478;7.510;2024-03-08T13:02:30;19.90;49.20
39657;DHT22;25337;51.478;7.510;2024-03-08T13:04:57;19.70;49.70
39657;DHT22;25337;51.478;7.510;2024-03-08T13:07:24;19.50;48.90
39657;DHT22;25337;51.478;7.510;2024-03-08T13:09:52;19.10;49.80
39657;DHT22;25337;51.478;7.510;2024-03-08T13:12:19;19.10;50.20
39657;DHT22;25337;51.478;7.510;2024-03-08T13:14:45;19.10;51.20
39657;DHT22;25337;51.478;7.510;2024-03-08T13:17:12;19.50;51.20
39657;DHT22;25337;51.478;7.510;2024-03-08T13:19:38;20.20;49.60
39657;DHT22;25337;51.478;7.510;2024-03-08T13:22:04;20.20;49.10
39657;DHT22;25337;51.478;7.510;2024-03-08T13:24:30;19.90;48.00
39657;DHT22;25337;51.478;7.510;2024-03-08T13:26:56;19.30;49.50
39657;DHT22;25337;51.478;7.510;2024-03-08T13:29:22;19.40;51.00
39657;DHT22;25337;51.478;7.510;2024-03-08T13:31:48;19.80;48.20
39657;DHT22;25337;51.478;7.510;2024-03-08T13:34:17;19.30;49.90
39657;DHT22;25337;51.478;7.510;2024-03-08T13:36:43;19.40;50.10
39657;DHT22;25337;51.478;7.510;2024-03-08T13:39:09;19.80;48.50
39657;DHT22;25337;51.478;7.510;2024-03-08T13:41:41;19.40;48.40
39657;DHT22;25337;51.478;7.510;2024-03-08T13:44:07;18.80;50.40
39657;DHT22;25337;51.478;7.510;2024-03-08T13:46:33;18.80;49.60
39657;DHT22;25337;51.478;7.510;2024-03-08T13:49:05;18.50;50.20
39657;DHT22;25337;51.478;7.510;2024-03-08T13:51:31;18.40;51.90
39657;DHT22;25337;51.478;7.510;2024-03-08T13:53:58;18.30;50.80
39657;DHT22;25337;51.478;7.510;2024-03-08T13:56:23;18.00;51.00
39657;DHT22;25337;51.478;7.510;2024-03-08T13:58:49;17.50;52.30
39657;DHT22;25337;51.478;7.510;2024-03-08T14:01:14;17.00;52.70
39657;DHT22;25337;51.478;7.510;2024-03-08T14:03:40;16.30;53.50
39657;DHT22;25337;51.478;7.510;2024-03-08T14:06:07;15.90;55.10
39657;DHT22;25337;51.478;7.510;2024-03-08T14:08:32;15.80;55.50
39657;DHT22;25337;51.478;7.510;2024-03-08T14:10:58;15.70;56.60
39657;DHT22;25337;51.478;7.510;2024-03-08T14:13:24;15.50;55.80
39657;DHT22;25337;51.478;7.510;2024-03-08T14:15:50;15.50;57.10
39657;DHT22;25337;51.478;7.510;2024-03-08T14:18:17;15.70;56.20
39657;DHT22;25337;51.478;7.510;2024-03-08T14:20:43;15.20;56.40
39657;DHT22;25337;51.478;7.510;2024-03-08T14:23:09;15.00;58.10
39657;DHT22;25337;51.478;7.510;2024-03-08T14:25:35;14.90;56.40
39657;DHT22;25337;51.478;7.510;2024-03-08T14:28:01;14.40;59.50
39657;DHT22;25337;51.478;7.510;2024-03-08T14:30:33;14.20;60.20
39657;DHT22;25337;51.478;7.510;2024-03-08T14:33:04;14.00;60.40
39657;DHT22;25337;51.478;7.510;2024-03-08T14:35:31;13.60;60.80
39657;DHT22;25337;51.478;7.510;2024-03-08T14:37:57;13.30;62.40
39657;DHT22;25337;51.478;7.510;2024-03-08T14:40:26;13.00;61.30
39657;DHT22;25337;51.478;7.510;2024-03-08T14:42:52;12.50;64.50
39657;DHT22;25337;51.478;7.510;2024-03-08T14:45:18;12.30;66.60
39657;DHT22;25337;51.478;7.510;2024-03-08T14:47:50;12.30;66.90
39657;DHT22;25337;51.478;7.510;2024-03-08T14:50:17;12.40;68.30
39657;DHT22;25337;51.478;7.510;2024-03-08T14:52:43;12.30;64.90
39657;DHT22;25337;51.478;7.510;2024-03-08T14:55:09;12.50;67.20
39657;DHT22;25337;51.478;7.510;2024-03-08T14:57:39;12.60;68.10
39657;DHT22;25337;51.478;7.510;2024-03-08T15:00:05;12.50;68.70
39657;DHT22;25337;51.478;7.510;2024-03-08T15:02:32;12.10;68.40
39657;DHT22;25337;51.478;7.510;2024-03-08T15:05:03;11.90;70.30
39657;DHT22;25337;51.478;7.510;2024-03-08T15:07:34;11.70;72.60
39657;DHT22;25337;51.478;7.510;2024-03-08T15:10:00;11.70;69.90
39657;DHT22;25337;51.478;7.510;2024-03-08T15:12:26;11.70;71.40
39657;DHT22;25337;51.478;7.510;2024-03-08T15:14:52;11.60;72.40
39657;DHT22;25337;51.478;7.510;2024-03-08T15:17:18;11.60;71.90
39657;DHT22;25337;51.478;7.510;2024-03-08T15:19:50;11.70;72.20
39657;DHT22;25337;51.478;7.510;2024-03-08T15:22:17;11.70;70.40
39657;DHT22;25337;51.478;7.510;2024-03-08T15:24:44;11.60;69.90
39657;DHT22;25337;51.478;7.510;2024-03-08T15:27:09;11.50;71.80
39657;DHT22;25337;51.478;7.510;2024-03-08T15:29:35;11.50;73.50
39657;DHT22;25337;51.478;7.510;2024-03-08T15:32:02;11.70;72.80
39657;DHT22;25337;51.478;7.510;2024-03-08T15:34:28;12.20;69.30
39657;DHT22;25337;51.478;7.510;2024-03-08T15:36:54;12.50;68.60
39657;DHT22;25337;51.478;7.510;2024-03-08T15:39:23;12.50;67.60
39657;DHT22;25337;51.478;7.510;2024-03-08T15:41:49;12.60;68.90
39657;DHT22;25337;51.478;7.510;2024-03-08T15:44:15;13.00;67.20
39657;DHT22;25337;51.478;7.510;2024-03-08T15:49:07;13.10;67.30
39657;DHT22;25337;51.478;7.510;2024-03-08T15:51:37;13.00;67.90